Time;durP1;ratioP1;P1;durP2;ratioP2;P2;SDS_P1;SDS_P2;PMS_P1;PMS_P2;Temp;Humidity;BMP_temperature;BMP_pressure;BME280_temperature;BME280_humidity;BME280_pressure;Samples;Min_cycle;Max_cycle;Signal;HPM_P1;HPM_P2
2021/06/28 00:08:42;;;;;;;3.10;0.57;;;22.80;34.50;;;;;;20538320;28;82808;-66
2021/06/28 00:18:44;;;;;;;0.95;0.43;;;22.50;35.00;;;;;;20543096;28;81341;-67
2021/06/28 00:28:46;;;;;;;;;;;22.40;35.30;;;;;;20555133;28;80425;-68
2021/06/28 00:38:48;;;;;;;1.73;0.55;;;22.30;34.80;;;;;;20511097;28;80451;-67
2021/06/28 00:48:49;;;;;;;1.67;0.67;;;22.00;34.50;;;;;;20533258;28;82446;-67
2021/06/28 00:58:53;;;;;;;1.25;0.55;;;21.90;33.90;;;;;;20542190;28;81071;-66
2021/06/28 01:08:55;;;;;;;1.05;0.40;;;21.70;33.50;;;;;;20546920;28;81599;-66
2021/06/28 01:18:58;;;;;;;1.75;0.60;;;21.50;33.90;;;;;;20555779;28;81000;-67
2021/06/28 01:29:04;;;;;;;0.65;0.38;;;21.40;34.20;;;;;;20548989;28;81048;-66
2021/06/28 01:39:07;;;;;;;2.60;0.70;;;21.40;33.90;;;;;;20548593;28;80648;-68
2021/06/28 01:49:16;;;;;;;1.00;0.45;;;21.20;34.40;;;;;;20555093;28;81086;-70
2021/06/28 01:59:35;;;;;;;1.80;0.80;;;21.20;34.90;;;;;;20546819;28;80253;-67
2021/06/28 02:09:44;;;;;;;2.22;0.52;;;21.10;35.40;;;;;;20546798;28;80352;-67
2021/06/28 02:19:52;;;;;;;1.38;0.60;;;21.10;35.20;;;;;;20550233;28;80824;-67
2021/06/28 02:29:56;;;;;;;2.83;0.60;;;21.00;35.60;;;;;;20543436;28;81145;-66
2021/06/28 02:40:01;;;;;;;2.08;0.90;;;20.90;35.80;;;;;;20541786;28;80503;-66
2021/06/28 02:50:13;;;;;;;1.83;0.52;;;20.90;35.90;;;;;;20544106;28;80775;-66
2021/06/28 03:00:18;;;;;;;2.03;0.93;;;20.80;36.10;;;;;;20548177;28;80366;-65
2021/06/28 03:10:22;;;;;;;2.45;0.65;;;20.70;36.30;;;;;;20546621;28;80240;-65
2021/06/28 03:20:26;;;;;;;2.63;1.08;;;20.60;36.70;;;;;;20547278;28;80755;-66
2021/06/28 03:30:28;;;;;;;3.53;1.20;;;20.50;37.00;;;;;;20541037;28;80204;-71
2021/06/28 03:40:33;;;;;;;1.77;0.60;;;20.40;36.90;;;;;;20559367;28;81623;-71
2021/06/28 03:50:37;;;;;;;3.75;0.70;;;20.20;37.30;;;;;;20537685;28;80724;-72
2021/06/28 04:00:41;;;;;;;1.73;0.73;;;20.00;37.30;;;;;;20539773;28;80234;-72
2021/06/28 04:10:44;;;;;;;2.75;1.00;;;19.90;37.60;;;;;;20545143;28;80693;-72
2021/06/28 04:20:49;;;;;;;2.22;0.68;;;19.70;38.20;;;;;;20539209;28;81849;-72
2021/06/28 04:30:51;;;;;;;3.40;1.17;;;19.50;39.50;;;;;;20544724;28;81150;-70
2021/06/28 04:40:53;;;;;;;;;;;19.50;39.20;;;;;;20539870;28;80917;-72
2021/06/28 04:51:03;;;;;;;1.98;0.82;;;19.30;39.10;;;;;;20576635;28;84109;-73
2021/06/28 05:01:06;;;;;;;1.48;0.57;;;19.30;39.20;;;;;;20548429;28;79970;-73
2021/06/28 05:11:08;;;;;;;2.13;0.90;;;19.20;39.50;;;;;;20548768;28;80642;-71
2021/06/28 05:21:11;;;;;;;4.70;0.77;;;19.10;39.30;;;;;;20553021;28;82520;-71
2021/06/28 05:31:14;;;;;;;2.33;0.70;;;19.30;38.50;;;;;;20549867;28;81327;-71
2021/06/28 05:41:16;;;;;;;2.20;0.97;;;19.30;38.50;;;;;;20552622;28;80578;-70
2021/06/28 05:51:20;;;;;;;2.33;0.80;;;19.30;38.40;;;;;;20549157;28;81918;-70
2021/06/28 06:01:22;;;;;;;5.35;1.38;;;19.40;39.40;;;;;;20550871;28;83532;-67
2021/06/28 06:11:26;;;;;;;2.17;0.75;;;19.20;40.20;;;;;;20546210;28;80129;-77
2021/06/28 06:21:29;;;;;;;2.33;0.70;;;19.10;41.10;;;;;;20536321;28;81978;-72
2021/06/28 06:31:30;;;;;;;8.23;4.80;;;19.20;39.70;;;;;;20543004;28;81162;-73
2021/06/28 06:41:32;;;;;;;3.10;1.10;;;19.40;39.30;;;;;;20539868;28;80460;-73
2021/06/28 06:51:35;;;;;;;15.07;8.13;;;19.50;39.40;;;;;;20543164;28;81525;-74
2021/06/28 07:01:40;;;;;;;6.33;3.23;;;19.70;39.20;;;;;;20540611;28;82941;-74
2021/06/28 07:11:43;;;;;;;4.55;2.08;;;19.90;38.70;;;;;;20539569;28;80305;-75
2021/06/28 07:21:48;;;;;;;10.95;4.45;;;20.00;38.20;;;;;;20534519;28;80853;-72
2021/06/28 07:31:51;;;;;;;2.63;0.80;;;20.20;37.60;;;;;;20537279;28;82744;-74
2021/06/28 07:41:54;;;;;;;2.03;0.80;;;20.40;36.90;;;;;;20538018;28;80995;-69
2021/06/28 07:51:59;;;;;;;2.53;0.82;;;20.50;36.60;;;;;;20518026;28;80776;-69
2021/06/28 08:02:02;;;;;;;2.42;1.10;;;20.60;36.90;;;;;;20544761;28;80907;-71
2021/06/28 08:12:05;;;;;;;2.22;0.90;;;20.80;36.80;;;;;;20524487;28;80683;-70
2021/06/28 08:22:09;;;;;;;2.53;0.70;;;20.90;36.90;;;;;;20550342;28;80674;-71
2021/06/28 08:32:11;;;;;;;2.13;1.27;;;21.10;36.70;;;;;;20548525;28;83357;-70
2021/06/28 08:42:16;;;;;;;6.53;3.72;;;21.30;36.20;;;;;;20544408;28;83454;-70
2021/06/28 08:52:22;;;;;;;6.35;2.00;;;21.50;35.90;;;;;;20550673;28;82170;-71
2021/06/28 09:02:26;;;;;;;5.50;0.77;;;21.80;35.60;;;;;;20539751;28;80297;-67
2021/06/28 09:12:28;;;;;;;2.47;1.00;;;22.00;34.70;;;;;;20540071;28;82192;-68
2021/06/28 09:22:30;;;;;;;2.97;0.90;;;22.20;33.90;;;;;;20552995;28;80174;-77
2021/06/28 09:32:49;;;;;;;5.53;1.35;;;22.40;33.30;;;;;;20539735;28;81946;-77
2021/06/28 09:42:52;;;;;;;3.25;0.82;;;23.00;32.70;;;;;;20528786;28;81346;-77
2021/06/28 09:52:55;;;;;;;3.13;0.87;;;23.40;32.30;;;;;;20531563;28;80799;-68
2021/06/28 10:02:57;;;;;;;3.65;1.17;;;24.30;30.80;;;;;;20535993;28;80747;-67
2021/06/28 10:13:07;;;;;;;4.43;1.67;;;24.90;30.50;;;;;;20539187;28;80682;-68
2021/06/28 10:23:09;;;;;;;3.22;0.90;;;25.50;28.70;;;;;;20542445;28;80493;-68
2021/06/28 10:33:13;;;;;;;4.20;1.73;;;26.00;27.60;;;;;;20540979;28;80739;-67
2021/06/28 10:43:41;;;;;;;2.08;0.90;;;26.40;27.80;;;;;;20528788;28;80243;-67
2021/06/28 10:53:44;;;;;;;3.05;0.90;;;26.70;27.90;;;;;;20511009;28;80526;-68
2021/06/28 11:04:03;;;;;;;;;;;28.50;25.80;;;;;;20511897;28;81788;-68
2021/06/28 11:14:05;;;;;;;5.53;3.33;;;33.80;21.30;;;;;;20551973;28;80349;-68
2021/06/28 11:24:07;;;;;;;4.28;1.80;;;33.70;20.80;;;;;;20538698;28;80396;-67
2021/06/28 11:34:10;;;;;;;1.77;0.98;;;33.10;21.70;;;;;;20539629;28;80894;-67
2021/06/28 11:44:25;;;;;;;3.88;0.90;;;34.10;20.60;;;;;;20521920;28;80130;-69
2021/06/28 11:54:27;;;;;;;2.40;1.58;;;35.20;19.60;;;;;;20534756;28;80640;-69
2021/06/28 12:04:59;;;;;;;2.00;1.08;;;38.30;17.20;;;;;;20536543;28;80916;-68
2021/06/28 12:15:03;;;;;;;2.70;1.40;;;39.30;16.50;;;;;;20528484;28;80688;-72
2021/06/28 12:25:07;;;;;;;4.28;1.60;;;41.40;15.10;;;;;;20517974;28;80090;-72
2021/06/28 12:35:13;;;;;;;2.88;1.55;;;40.90;14.80;;;;;;20543923;28;81495;-71
2021/06/28 12:45:17;;;;;;;1.98;1.00;;;41.90;14.70;;;;;;20525438;28;81421;-71
2021/06/28 12:55:31;;;;;;;6.30;1.20;;;42.60;13.70;;;;;;20535290;28;80957;-70
2021/06/28 13:05:43;;;;;;;3.63;1.17;;;42.50;14.50;;;;;;20563386;28;81859;-72
2021/06/28 13:16:10;;;;;;;1.70;0.60;;;43.30;14.10;;;;;;20538543;28;81899;-71
2021/06/28 13:26:14;;;;;;;2.65;1.70;;;43.50;13.00;;;;;;20537079;28;81336;-72
2021/06/28 13:36:16;;;;;;;3.05;2.38;;;43.00;14.10;;;;;;20541451;28;80685;-71
2021/06/28 13:46:28;;;;;;;2.97;1.80;;;41.50;14.80;;;;;;20554232;28;80762;-72
2021/06/28 13:56:30;;;;;;;1.40;1.15;;;36.50;17.50;;;;;;20556146;28;81087;-71
2021/06/28 14:06:33;;;;;;;2.90;0.80;;;34.50;19.10;;;;;;20519232;28;80095;-71
2021/06/28 14:16:38;;;;;;;1.17;0.60;;;33.50;20.00;;;;;;20470005;28;80112;-71
2021/06/28 14:26:41;;;;;;;2.75;0.75;;;32.70;20.80;;;;;;20483248;28;82148;-70
2021/06/28 14:36:43;;;;;;;2.45;1.20;;;31.90;21.60;;;;;;20527282;28;80874;-70
2021/06/28 14:46:45;;;;;;;7.22;2.95;;;31.80;21.90;;;;;;20524992;28;80703;-70
2021/06/28 14:56:48;;;;;;;3.83;1.33;;;31.40;21.90;;;;;;20531123;28;79976;-70
2021/06/28 15:06:50;;;;;;;3.42;0.88;;;31.40;21.90;;;;;;20534879;28;82434;-68
2021/06/28 15:16:52;;;;;;;2.38;0.90;;;31.10;21.90;;;;;;20534457;28;80749;-66
2021/06/28 15:26:54;;;;;;;2.78;0.70;;;30.80;22.10;;;;;;20523194;28;80886;-68
2021/06/28 15:36:56;;;;;;;1.98;0.47;;;30.50;22.70;;;;;;20483146;28;80209;-67
2021/06/28 15:46:58;;;;;;;5.70;1.30;;;30.20;22.20;;;;;;20514028;28;80897;-67
2021/06/28 15:57:02;;;;;;;2.90;1.08;;;30.10;22.10;;;;;;20524450;28;80615;-66
2021/06/28 16:07:04;;;;;;;0.80;0.40;;;29.80;22.40;;;;;;20518506;28;81318;-65
2021/06/28 16:17:09;;;;;;;1.85;0.50;;;29.70;22.10;;;;;;20529342;28;80520;-65
2021/06/28 16:27:10;;;;;;;3.58;2.35;;;29.60;23.10;;;;;;20517202;28;80839;-67
2021/06/28 16:37:12;;;;;;;3.83;1.40;;;29.40;23.20;;;;;;20529977;28;80519;-67
2021/06/28 16:47:14;;;;;;;4.13;1.10;;;29.30;23.80;;;;;;20547720;28;80648;-67
2021/06/28 16:57:16;;;;;;;2.78;0.73;;;29.20;24.20;;;;;;20547237;28;80338;-65
2021/06/28 17:07:18;;;;;;;2.63;0.40;;;29.10;24.90;;;;;;20540611;28;82079;-66
2021/06/28 17:17:21;;;;;;;2.58;0.47;;;28.90;24.80;;;;;;20538257;28;84126;-67
2021/06/28 17:27:22;;;;;;;1.02;0.43;;;28.70;25.30;;;;;;20540746;28;81812;-67
2021/06/28 17:37:30;;;;;;;1.85;1.00;;;28.50;25.60;;;;;;20547712;28;84265;-65
2021/06/28 17:47:31;;;;;;;4.75;1.50;;;28.40;26.10;;;;;;20527778;28;82631;-65
2021/06/28 17:57:34;;;;;;;2.83;0.93;;;28.20;26.80;;;;;;20537343;28;83606;-66
2021/06/28 18:07:36;;;;;;;2.60;1.15;;;27.90;26.60;;;;;;20531497;28;81298;-65
2021/06/28 18:17:38;;;;;;;5.05;2.97;;;27.80;27.30;;;;;;20529994;28;82178;-65
2021/06/28 18:27:40;;;;;;;8.00;4.22;;;27.60;27.60;;;;;;20533174;28;81654;-68
2021/06/28 18:37:42;;;;;;;3.85;2.40;;;27.50;27.60;;;;;;20521064;28;80794;-67
2021/06/28 18:47:43;;;;;;;7.20;4.78;;;27.20;28.50;;;;;;20533088;28;83079;-66
2021/06/28 18:57:45;;;;;;;5.20;1.88;;;27.00;29.40;;;;;;20512131;28;80706;-67
2021/06/28 19:07:47;;;;;;;14.45;9.13;;;26.90;29.70;;;;;;20521470;28;82353;-66
2021/06/28 19:17:49;;;;;;;2.42;1.00;;;26.60;29.40;;;;;;20483798;28;82418;-65
2021/06/28 19:27:50;;;;;;;2.78;1.30;;;26.40;29.20;;;;;;20522933;28;81750;-66
2021/06/28 19:37:52;;;;;;;22.35;14.48;;;26.20;29.40;;;;;;20522479;28;82695;-67
2021/06/28 19:47:53;;;;;;;5.13;1.50;;;26.00;29.40;;;;;;20518033;28;83419;-65
2021/06/28 19:57:55;;;;;;;5.85;3.85;;;25.80;30.00;;;;;;20520518;28;82042;-67
2021/06/28 20:07:57;;;;;;;4.13;1.20;;;25.50;30.40;;;;;;20522748;28;81750;-68
2021/06/28 20:17:59;;;;;;;7.13;4.72;;;25.40;30.20;;;;;;20521799;28;80824;-69
2021/06/28 20:28:01;;;;;;;1.83;0.80;;;25.20;30.80;;;;;;20501307;28;81459;-70
2021/06/28 20:38:07;;;;;;;4.20;2.15;;;25.10;31.10;;;;;;20493973;28;83047;-68
2021/06/28 20:48:10;;;;;;;3.17;0.70;;;24.90;32.80;;;;;;20507927;28;81177;-68
2021/06/28 20:58:12;;;;;;;2.95;0.95;;;24.50;34.30;;;;;;20488568;28;81320;-68
2021/06/28 21:08:14;;;;;;;17.90;10.55;;;24.40;34.50;;;;;;20516808;28;80220;-72
2021/06/28 21:18:16;;;;;;;64.10;43.85;;;24.20;34.70;;;;;;20511327;28;82896;-72
2021/06/28 21:28:19;;;;;;;3.35;1.60;;;24.00;34.60;;;;;;20501639;28;84490;-72
2021/06/28 21:38:21;;;;;;;5.78;1.45;;;23.90;34.90;;;;;;20510419;28;83617;-72
2021/06/28 21:48:26;;;;;;;;;;;23.80;35.30;;;;;;20518201;28;80572;-70
2021/06/28 21:58:28;;;;;;;4.55;1.15;;;23.50;34.90;;;;;;20549221;28;81738;-68
2021/06/28 22:08:30;;;;;;;2.47;0.80;;;23.40;35.60;;;;;;20537899;28;80485;-68
2021/06/28 22:18:32;;;;;;;1.58;0.52;;;23.30;36.20;;;;;;20541677;28;81476;-69
2021/06/28 22:28:34;;;;;;;2.80;0.50;;;23.20;35.60;;;;;;20542090;28;83005;-69
2021/06/28 22:38:36;;;;;;;0.98;0.32;;;23.10;35.70;;;;;;20542056;28;83923;-70
2021/06/28 22:48:38;;;;;;;1.50;0.50;;;22.90;36.10;;;;;;20540162;28;82822;-69
2021/06/28 22:58:39;;;;;;;1.00;0.43;;;22.90;36.20;;;;;;20547491;28;80690;-69
2021/06/28 23:08:42;;;;;;;3.88;0.85;;;22.60;36.80;;;;;;20545028;28;83944;-69
2021/06/28 23:18:44;;;;;;;2.33;0.60;;;22.50;37.70;;;;;;20537510;28;81688;-68
2021/06/28 23:28:46;;;;;;;1.57;0.70;;;22.40;38.10;;;;;;20542138;28;80911;-69
2021/06/28 23:38:51;;;;;;;5.95;0.70;;;22.20;38.70;;;;;;20541375;28;80658;-69
2021/06/28 23:48:52;;;;;;;1.87;0.60;;;22.10;38.90;;;;;;20538891;28;81785;-68
2021/06/28 23:58:54;;;;;;;1.63;0.43;;;22.00;39.00;;;;;;20543791;28;80408;-68
